Urb Pasarell, Puerto Rico
Current Conditions -  °F | °C
As of 2:56 PM on Tuesday 21 Oct 2014 (Local Time) from TJSJ Reporting Station
Scattered Clouds Scattered Clouds  
Wind Chill: 85°   Ceiling: Unl
Heat Index: 93°   Visibility: 10mi
Dew Point: 75°   Wind: 12mph
Humidity: 72%   Direction: 60°ENE
Pressure: 29.89"   Gusts: NA
Location:  18.2202°N, 66.2266°W
Report Text: TJSJ 211856Z 06010KT 10SM FEW033 SCT065 SCT110 29/24 A2989 RMK AO2 SLP122 VCSH SW T02940239
Loading
Personal Weather Stations






























Interactive Weather Map
Tropical Storm Tracking
New forecast layout! Learn more

10-Day Weather Forecast

Advertisements
Track Severe Weather on mobile